createdAt,value
2019-03-01T00:00:00.579Z,4.63
2019-03-01T00:02:28.972Z,5.57
2019-03-01T00:04:55.793Z,4.37
2019-03-01T00:07:22.359Z,3.57
2019-03-01T00:09:48.947Z,5.60
2019-03-01T00:12:16.621Z,7.10
2019-03-01T00:14:43.275Z,7.10
2019-03-01T00:17:09.822Z,3.10
2019-03-01T00:19:36.532Z,5.50
2019-03-01T00:22:03.056Z,5.30
2019-03-01T00:24:30.041Z,6.87
2019-03-01T00:26:56.736Z,4.73
2019-03-01T00:29:23.546Z,5.13
2019-03-01T00:31:51.251Z,6.20
2019-03-01T00:34:18.149Z,5.30
2019-03-01T00:36:44.900Z,9.20
2019-03-01T00:39:11.750Z,7.97
2019-03-01T00:41:38.854Z,5.20
2019-03-01T00:44:05.528Z,5.60
2019-03-01T00:46:32.144Z,4.37
2019-03-01T00:48:59.870Z,6.30
2019-03-01T00:51:26.603Z,5.83
2019-03-01T00:53:53.604Z,6.77
2019-03-01T00:56:20.206Z,6.03
2019-03-01T00:58:47.184Z,5.03
2019-03-01T01:01:13.740Z,6.27
2019-03-01T01:03:40.538Z,6.03
2019-03-01T01:06:07.196Z,6.20
2019-03-01T01:08:34.022Z,10.00
2019-03-01T01:11:01.000Z,6.60
2019-03-01T01:13:28.786Z,8.50
2019-03-01T01:15:55.349Z,6.37
2019-03-01T01:18:22.292Z,6.97
2019-03-01T01:20:49.153Z,10.23
2019-03-01T01:23:15.744Z,8.67
2019-03-01T01:25:42.429Z,9.50
2019-03-01T01:28:09.071Z,9.07
2019-03-01T01:30:35.969Z,8.83
2019-03-01T01:33:03.519Z,9.73
2019-03-01T01:35:30.088Z,10.17
2019-03-01T01:37:56.756Z,10.80
2019-03-01T01:40:23.423Z,8.47
2019-03-01T01:42:50.058Z,12.40
2019-03-01T01:45:16.661Z,9.23
2019-03-01T01:47:43.325Z,12.47
2019-03-01T01:50:10.221Z,12.07
2019-03-01T01:52:36.965Z,10.33
2019-03-01T01:55:03.594Z,14.20
2019-03-01T01:57:30.521Z,10.07
2019-03-01T01:59:57.179Z,9.20
2019-03-01T02:02:23.737Z,10.47
2019-03-01T02:04:50.329Z,11.00
2019-03-01T02:07:16.886Z,14.20
2019-03-01T02:09:43.431Z,13.97
2019-03-01T02:12:10.459Z,14.00
2019-03-01T02:14:36.999Z,10.57
2019-03-01T02:17:03.857Z,13.00
2019-03-01T02:19:30.477Z,14.90
2019-03-01T02:21:57.098Z,14.83
2019-03-01T02:24:24.017Z,16.17
2019-03-01T02:26:50.675Z,14.47
2019-03-01T02:29:17.542Z,16.00
2019-03-01T02:31:44.229Z,20.63
2019-03-01T02:34:11.114Z,19.87
2019-03-01T02:36:37.769Z,14.07
2019-03-01T02:39:04.395Z,17.83
2019-03-01T02:41:30.978Z,18.90
2019-03-01T02:43:58.108Z,23.37
2019-03-01T02:46:24.823Z,23.70
2019-03-01T02:48:51.365Z,28.80
2019-03-01T02:51:17.940Z,32.63
2019-03-01T02:53:44.567Z,27.37
2019-03-01T02:56:11.196Z,35.20
2019-03-01T02:58:37.799Z,36.47
2019-03-01T03:01:04.477Z,37.70
2019-03-01T03:03:31.092Z,41.03
2019-03-01T03:06:23.208Z,37.57
2019-03-01T03:08:50.449Z,39.70
2019-03-01T03:11:17.066Z,49.17
2019-03-01T03:13:43.842Z,51.27
2019-03-01T03:16:10.556Z,54.30
2019-03-01T03:18:40.205Z,45.40
2019-03-01T03:21:06.734Z,50.43
2019-03-01T03:23:33.327Z,49.20
2019-03-01T03:26:01.823Z,44.50
2019-03-01T03:28:28.636Z,48.60
2019-03-01T03:30:55.569Z,53.23
2019-03-01T03:33:22.270Z,50.30
2019-03-01T03:35:48.994Z,48.90
2019-03-01T03:38:15.573Z,54.97
2019-03-01T03:40:42.321Z,46.67
2019-03-01T03:43:09.020Z,48.47
2019-03-01T03:45:37.541Z,41.60
2019-03-01T03:48:04.261Z,42.73
2019-03-01T03:50:31.372Z,40.40
2019-03-01T03:52:58.227Z,46.93
2019-03-01T03:55:24.835Z,40.87
2019-03-01T03:57:51.464Z,43.47
2019-03-01T04:00:19.404Z,39.03
2019-03-01T04:02:46.107Z,44.83
2019-03-01T04:05:13.093Z,40.70
2019-03-01T04:07:39.727Z,37.70
2019-03-01T04:10:06.365Z,40.60
2019-03-01T04:12:32.976Z,36.03
2019-03-01T04:14:59.584Z,42.70
2019-03-01T04:17:27.977Z,34.13
2019-03-01T04:19:54.658Z,37.63
2019-03-01T04:22:22.309Z,36.00
2019-03-01T04:24:48.897Z,39.37
2019-03-01T04:27:15.721Z,30.37
2019-03-01T04:29:42.424Z,39.83
2019-03-01T04:32:09.141Z,34.37
2019-03-01T04:34:35.855Z,35.10
2019-03-01T04:37:02.545Z,31.23
2019-03-01T04:39:29.444Z,30.67
2019-03-01T04:41:56.105Z,39.90
2019-03-01T04:44:23.170Z,29.10
2019-03-01T04:46:49.835Z,33.37
2019-03-01T04:49:16.609Z,35.37
2019-03-01T04:51:43.148Z,32.27
2019-03-01T04:54:09.699Z,29.47
2019-03-01T04:56:36.362Z,38.20
2019-03-01T04:59:03.068Z,31.40
2019-03-01T05:01:29.748Z,29.83
2019-03-01T05:03:56.354Z,28.40
2019-03-01T05:06:23.210Z,26.57
2019-03-01T05:09:10.465Z,27.17
2019-03-01T05:11:37.075Z,30.47
2019-03-01T05:14:03.699Z,29.57
2019-03-01T05:16:32.271Z,27.83
2019-03-01T05:18:58.749Z,27.60
2019-03-01T05:21:27.178Z,28.03
2019-03-01T05:23:58.172Z,31.40
2019-03-01T05:26:24.886Z,31.60
2019-03-01T05:28:51.476Z,29.37
2019-03-01T05:31:20.112Z,33.20
2019-03-01T05:33:47.001Z,30.77
2019-03-01T05:36:13.932Z,30.50
2019-03-01T05:38:40.716Z,28.00
2019-03-01T05:41:07.608Z,36.87
2019-03-01T05:43:34.382Z,34.83
2019-03-01T05:46:39.066Z,38.57
2019-03-01T05:49:30.157Z,32.37
2019-03-01T05:52:09.203Z,31.13
2019-03-01T05:54:39.422Z,35.63
2019-03-01T05:57:06.153Z,34.07
2019-03-01T05:59:32.751Z,35.63
2019-03-01T06:01:59.704Z,34.03
2019-03-01T06:04:29.147Z,33.80
2019-03-01T06:06:55.732Z,35.80
2019-03-01T06:09:22.374Z,39.77
2019-03-01T06:11:48.964Z,40.50
2019-03-01T06:14:15.590Z,33.83
2019-03-01T06:16:46.887Z,33.37
2019-03-01T06:19:13.738Z,44.83
2019-03-01T06:21:40.433Z,36.17
2019-03-01T06:24:07.060Z,33.10
2019-03-01T06:26:33.691Z,38.03
2019-03-01T06:29:01.463Z,39.90
2019-03-01T06:31:28.097Z,35.47
2019-03-01T06:33:55.912Z,36.50
2019-03-01T06:36:23.844Z,42.60
2019-03-01T06:39:09.089Z,37.97
2019-03-01T06:41:36.029Z,40.97
2019-03-01T06:44:02.631Z,41.90
2019-03-01T06:46:29.330Z,37.37
2019-03-01T06:49:00.522Z,39.43
2019-03-01T06:51:30.313Z,34.03
2019-03-01T06:53:57.359Z,36.83
2019-03-01T06:56:36.835Z,38.03
2019-03-01T06:59:08.201Z,35.33
2019-03-01T07:01:39.205Z,34.57
2019-03-01T07:04:17.050Z,38.90
2019-03-01T07:06:43.754Z,34.97
2019-03-01T07:09:10.476Z,41.63
2019-03-01T07:11:37.203Z,43.10
2019-03-01T07:14:06.193Z,41.87
2019-03-01T07:16:32.796Z,33.30
2019-03-01T07:18:59.474Z,30.20
2019-03-01T07:21:27.061Z,42.47
2019-03-01T07:23:55.488Z,35.07
2019-03-01T07:26:22.391Z,37.73
2019-03-01T07:28:49.242Z,37.17
2019-03-01T07:31:17.102Z,40.83
2019-03-01T07:33:43.745Z,36.33
2019-03-01T07:36:10.420Z,29.97
2019-03-01T07:38:37.029Z,32.73
2019-03-01T07:41:03.774Z,32.07
2019-03-01T07:43:31.987Z,32.13
2019-03-01T07:45:59.428Z,33.67
2019-03-01T07:48:26.448Z,31.27
2019-03-01T07:50:55.235Z,26.40
2019-03-01T07:53:21.534Z,31.70
2019-03-01T07:55:48.357Z,35.90
2019-03-01T07:58:16.903Z,30.47
2019-03-01T08:00:47.260Z,34.40
2019-03-01T08:03:15.137Z,32.13
2019-03-01T08:05:42.640Z,35.53
2019-03-01T08:08:09.184Z,32.60
2019-03-01T08:10:35.930Z,29.60
2019-03-01T08:13:02.539Z,36.10
2019-03-01T08:15:29.112Z,26.87
2019-03-01T08:17:56.054Z,27.90
2019-03-01T08:20:22.874Z,31.37
2019-03-01T08:22:51.369Z,31.77
2019-03-01T08:25:23.242Z,29.57
2019-03-01T08:27:48.436Z,40.43
2019-03-01T08:30:15.375Z,29.67
2019-03-01T08:32:42.159Z,26.10
2019-03-01T08:35:11.501Z,29.73
2019-03-01T08:37:38.384Z,29.23
2019-03-01T08:40:05.009Z,29.40
2019-03-01T08:42:32.730Z,27.80
2019-03-01T08:45:00.297Z,25.23
2019-03-01T08:47:27.105Z,25.60
2019-03-01T08:49:53.803Z,27.23
2019-03-01T08:52:20.853Z,25.67
2019-03-01T08:54:51.012Z,25.07
2019-03-01T08:57:17.785Z,25.37
2019-03-01T08:59:44.528Z,26.73
2019-03-01T09:02:12.046Z,23.87
2019-03-01T09:04:38.816Z,18.40
2019-03-01T09:07:05.406Z,23.87
2019-03-01T09:09:32.047Z,17.23
2019-03-01T09:12:00.549Z,20.37
2019-03-01T09:14:27.632Z,19.43
2019-03-01T09:16:54.247Z,14.87
2019-03-01T09:19:22.277Z,22.20
2019-03-01T09:21:50.916Z,17.30
2019-03-01T09:24:17.805Z,16.50
2019-03-01T09:26:44.675Z,16.37
2019-03-01T09:29:13.010Z,21.90
2019-03-01T09:31:40.010Z,13.27
2019-03-01T09:34:06.739Z,11.47
2019-03-01T09:36:43.425Z,16.17
2019-03-01T09:39:10.118Z,15.10
2019-03-01T09:41:40.539Z,16.33
2019-03-01T09:44:05.242Z,14.47
2019-03-01T09:46:32.338Z,12.97
2019-03-01T09:48:59.070Z,13.73
2019-03-01T09:51:27.420Z,12.30
2019-03-01T09:53:54.458Z,14.90
2019-03-01T09:56:24.379Z,14.30
2019-03-01T09:58:51.466Z,10.97
2019-03-01T10:01:19.379Z,12.80
2019-03-01T10:03:46.405Z,11.10
2019-03-01T10:06:13.026Z,9.77
2019-03-01T10:08:40.072Z,12.07
2019-03-01T10:11:06.871Z,9.23
2019-03-01T10:16:01.312Z,15.83
2019-03-01T10:18:27.952Z,8.93
2019-03-01T10:20:54.601Z,6.10
2019-03-01T10:23:21.458Z,10.00
2019-03-01T10:25:48.053Z,15.17
2019-03-01T10:28:14.629Z,5.80
2019-03-01T10:30:41.582Z,7.43
2019-03-01T10:33:08.186Z,8.33
2019-03-01T10:35:34.729Z,8.20
2019-03-01T10:38:01.303Z,8.80
2019-03-01T10:40:27.907Z,9.63
2019-03-01T10:42:54.754Z,8.73
2019-03-01T10:45:21.511Z,10.47
2019-03-01T10:47:48.091Z,6.37
2019-03-01T10:50:14.623Z,10.17
2019-03-01T10:52:42.291Z,5.97
2019-03-01T10:55:08.966Z,7.50
2019-03-01T10:57:35.555Z,4.80
2019-03-01T11:00:02.257Z,7.23
2019-03-01T11:02:29.521Z,4.70
2019-03-01T11:04:56.091Z,7.40
2019-03-01T11:07:22.667Z,5.27
2019-03-01T11:09:51.228Z,4.83
2019-03-01T11:12:17.978Z,5.67
2019-03-01T11:14:46.251Z,9.20
2019-03-01T11:17:14.698Z,8.53
2019-03-01T11:19:41.308Z,7.13
2019-03-01T11:22:07.912Z,10.10
2019-03-01T11:24:36.661Z,5.70
2019-03-01T11:27:12.587Z,6.80
2019-03-01T11:29:31.624Z,4.73
2019-03-01T11:31:58.240Z,6.37
2019-03-01T11:34:25.238Z,5.50
2019-03-01T11:36:52.009Z,5.97
2019-03-01T11:39:19.037Z,3.67
2019-03-01T11:41:46.735Z,5.80
2019-03-01T11:44:13.343Z,3.90
2019-03-01T11:46:40.019Z,5.67
2019-03-01T11:49:06.710Z,9.33
2019-03-01T11:51:33.792Z,3.80
2019-03-01T11:54:00.612Z,5.17
2019-03-01T11:56:27.323Z,3.13
2019-03-01T11:58:53.941Z,3.67
2019-03-01T12:01:20.638Z,4.43
2019-03-01T12:03:47.214Z,5.97
2019-03-01T12:06:13.815Z,7.80
2019-03-01T12:08:40.403Z,5.57
2019-03-01T12:11:07.536Z,3.93
2019-03-01T12:13:35.634Z,5.30
2019-03-01T12:16:02.306Z,4.13
2019-03-01T12:18:29.020Z,3.60
2019-03-01T12:20:55.620Z,2.57
2019-03-01T12:23:22.376Z,4.03
2019-03-01T12:25:49.059Z,2.83
2019-03-01T12:28:15.644Z,3.07
2019-03-01T12:30:43.381Z,2.27
2019-03-01T12:33:10.331Z,2.47
2019-03-01T12:35:37.153Z,6.70
2019-03-01T12:38:04.056Z,3.37
2019-03-01T12:40:30.643Z,4.90
2019-03-01T12:42:59.243Z,3.07
2019-03-01T12:45:25.763Z,2.67
2019-03-01T12:47:53.633Z,5.30
2019-03-01T12:50:20.435Z,2.87
2019-03-01T12:55:12.309Z,4.37
2019-03-01T12:57:39.003Z,3.50
2019-03-01T13:00:06.025Z,2.37
2019-03-01T13:02:32.609Z,3.87
2019-03-01T13:04:59.209Z,5.43
2019-03-01T13:07:25.904Z,8.20
2019-03-01T13:09:52.829Z,2.20
2019-03-01T13:12:22.339Z,6.27
2019-03-01T13:14:48.301Z,2.97
2019-03-01T13:17:14.932Z,1.93
2019-03-01T13:19:43.371Z,5.73
2019-03-01T13:22:09.950Z,3.80
2019-03-01T13:24:36.615Z,1.67
2019-03-01T13:27:03.767Z,3.57
2019-03-01T13:29:30.584Z,2.90
2019-03-01T13:31:57.739Z,2.03
2019-03-01T13:34:24.477Z,2.20
2019-03-01T13:36:51.100Z,4.27
2019-03-01T13:39:18.379Z,3.80
2019-03-01T13:41:44.922Z,2.43
2019-03-01T13:44:11.545Z,3.63
2019-03-01T13:46:39.772Z,3.10
2019-03-01T13:49:07.300Z,2.03
2019-03-01T13:51:35.261Z,2.90
2019-03-01T13:54:02.150Z,3.77
2019-03-01T13:56:28.998Z,3.73
2019-03-01T13:58:55.586Z,2.67
2019-03-01T14:01:23.719Z,8.40
2019-03-01T14:03:51.383Z,2.03
2019-03-01T14:06:17.994Z,5.27
2019-03-01T14:08:44.790Z,4.17
2019-03-01T14:11:15.296Z,2.27
2019-03-01T14:13:40.058Z,2.30
2019-03-01T14:16:06.703Z,2.90
2019-03-01T14:18:36.520Z,2.40
2019-03-01T14:21:03.829Z,3.13
2019-03-01T14:23:30.250Z,3.67
2019-03-01T14:25:56.912Z,1.77
2019-03-01T14:28:23.433Z,2.57
2019-03-01T14:30:51.826Z,2.80
2019-03-01T14:33:18.610Z,2.07
2019-03-01T14:35:46.394Z,2.20
2019-03-01T14:38:13.030Z,2.13
2019-03-01T14:40:39.774Z,2.10
2019-03-01T14:43:06.558Z,2.53
2019-03-01T14:45:33.350Z,4.30
2019-03-01T14:48:00.803Z,3.93
2019-03-01T14:50:29.864Z,3.40
2019-03-01T14:52:58.355Z,3.07
2019-03-01T14:55:27.611Z,4.17
2019-03-01T15:00:26.704Z,6.20
2019-03-01T15:02:53.340Z,2.70
2019-03-01T15:05:20.321Z,3.60
2019-03-01T15:07:46.918Z,1.53
2019-03-01T15:10:13.529Z,3.53
2019-03-01T15:12:40.220Z,2.17
2019-03-01T15:15:06.869Z,5.13
2019-03-01T15:17:33.854Z,4.53
2019-03-01T15:20:00.874Z,1.47
2019-03-01T15:22:27.517Z,1.53
2019-03-01T15:24:54.591Z,1.80
2019-03-01T15:27:21.099Z,1.40
2019-03-01T15:29:48.081Z,5.77
2019-03-01T15:32:15.842Z,3.40
2019-03-01T15:34:42.531Z,3.80
2019-03-01T15:37:09.236Z,3.43
2019-03-01T15:39:35.861Z,2.07
2019-03-01T15:42:02.486Z,2.73
2019-03-01T15:44:29.081Z,3.53
2019-03-01T15:46:55.815Z,3.13
2019-03-01T15:49:23.650Z,1.47
2019-03-01T15:51:50.454Z,2.50
2019-03-01T15:54:17.448Z,2.33
2019-03-01T15:56:44.106Z,2.43
2019-03-01T15:59:10.744Z,1.20
2019-03-01T16:01:38.051Z,2.40
2019-03-01T16:04:04.710Z,1.83
2019-03-01T16:06:31.331Z,2.03
2019-03-01T16:08:57.966Z,1.43
2019-03-01T16:11:24.916Z,2.50
2019-03-01T16:13:51.785Z,1.37
2019-03-01T16:16:18.536Z,3.60
2019-03-01T16:18:45.490Z,1.87
2019-03-01T16:21:12.835Z,1.63
2019-03-01T16:23:39.558Z,1.30
2019-03-01T16:26:06.102Z,1.87
2019-03-01T16:28:34.051Z,1.43
2019-03-01T16:31:01.228Z,1.40
2019-03-01T16:33:29.821Z,1.53
2019-03-01T16:35:56.197Z,1.30
2019-03-01T16:38:22.943Z,1.83
2019-03-01T16:40:49.666Z,1.70
2019-03-01T16:43:16.292Z,2.37
2019-03-01T16:45:43.036Z,1.63
2019-03-01T16:48:10.004Z,2.67
2019-03-01T16:50:36.860Z,4.60
2019-03-01T16:53:04.598Z,2.27
2019-03-01T16:55:31.976Z,3.27
2019-03-01T16:58:06.945Z,1.97
2019-03-01T17:00:30.494Z,1.50
2019-03-01T17:02:58.149Z,2.00
2019-03-01T17:05:25.070Z,2.60
2019-03-01T17:07:51.651Z,1.40
2019-03-01T17:10:19.428Z,1.80
2019-03-01T17:12:48.866Z,1.40
2019-03-01T17:15:14.780Z,1.07
2019-03-01T17:17:41.357Z,1.63
2019-03-01T17:20:07.927Z,2.43
2019-03-01T17:22:36.412Z,1.73
2019-03-01T17:25:02.945Z,2.13
2019-03-01T17:27:29.605Z,1.97
2019-03-01T17:29:56.164Z,2.17
2019-03-01T17:32:22.736Z,2.63
2019-03-01T17:34:49.508Z,1.87
2019-03-01T17:37:15.969Z,1.63
2019-03-01T17:39:42.540Z,2.70
2019-03-01T17:42:09.166Z,1.60
2019-03-01T17:44:35.763Z,2.20
2019-03-01T17:47:02.538Z,3.13
2019-03-01T17:49:29.702Z,2.53
2019-03-01T17:51:57.823Z,1.90
2019-03-01T17:54:24.383Z,1.40
2019-03-01T17:56:53.982Z,3.50
2019-03-01T17:59:19.412Z,1.67
2019-03-01T18:01:45.969Z,2.77
2019-03-01T18:04:12.531Z,2.10
2019-03-01T18:06:41.441Z,1.80
2019-03-01T18:09:08.121Z,2.57
2019-03-01T18:11:34.809Z,2.90
2019-03-01T18:14:01.736Z,2.33
2019-03-01T18:16:30.617Z,3.17
2019-03-01T18:18:57.264Z,2.10
2019-03-01T18:21:24.104Z,3.40
2019-03-01T18:26:29.670Z,4.03
2019-03-01T18:28:56.264Z,4.10
2019-03-01T18:31:23.203Z,3.43
2019-03-01T18:33:53.805Z,2.57
2019-03-01T18:36:19.527Z,2.43
2019-03-01T18:38:46.230Z,3.80
2019-03-01T18:41:14.100Z,2.97
2019-03-01T18:43:40.771Z,3.10
2019-03-01T18:46:07.599Z,5.07
2019-03-01T18:48:34.301Z,3.17
2019-03-01T18:51:03.439Z,3.17
2019-03-01T18:53:29.725Z,3.37
2019-03-01T18:55:57.013Z,3.83
2019-03-01T18:58:23.681Z,4.57
2019-03-01T19:00:50.544Z,4.17
2019-03-01T19:03:17.288Z,4.33
2019-03-01T19:05:43.971Z,4.10
2019-03-01T19:08:10.596Z,5.43
2019-03-01T19:10:37.210Z,7.13
2019-03-01T19:13:03.851Z,4.83
2019-03-01T19:15:31.232Z,5.50
2019-03-01T19:17:57.930Z,4.07
2019-03-01T19:20:24.629Z,4.17
2019-03-01T19:22:51.454Z,4.53
2019-03-01T19:25:18.243Z,4.30
2019-03-01T19:27:47.072Z,4.77
2019-03-01T19:30:15.849Z,4.73
2019-03-01T19:32:42.924Z,3.57
2019-03-01T19:35:09.814Z,4.33
2019-03-01T19:37:36.437Z,3.80
2019-03-01T19:40:03.060Z,5.37
2019-03-01T19:42:32.809Z,5.43
2019-03-01T19:45:00.665Z,5.17
2019-03-01T19:47:28.128Z,5.30
2019-03-01T19:49:54.808Z,5.10
2019-03-01T19:52:21.625Z,4.70
2019-03-01T19:54:48.440Z,5.87
2019-03-01T19:57:15.313Z,7.07
2019-03-01T19:59:42.018Z,5.67
2019-03-01T20:02:09.779Z,8.27
2019-03-01T20:04:36.943Z,5.83
2019-03-01T20:07:03.539Z,6.97
2019-03-01T20:09:30.424Z,6.10
2019-03-01T20:11:59.205Z,4.47
2019-03-01T20:14:25.753Z,5.57
2019-03-01T20:16:54.896Z,4.80
2019-03-01T20:19:22.252Z,7.57
2019-03-01T20:21:48.973Z,6.03
2019-03-01T20:24:15.569Z,5.50
2019-03-01T20:26:42.198Z,6.47
2019-03-01T20:29:10.603Z,8.13
2019-03-01T20:31:40.528Z,6.43
2019-03-01T20:34:05.677Z,9.20
2019-03-01T20:36:32.268Z,8.67
2019-03-01T20:38:59.427Z,7.00
2019-03-01T20:41:26.219Z,6.03
2019-03-01T20:43:53.368Z,8.20
2019-03-01T20:46:20.102Z,7.07
2019-03-01T20:48:46.963Z,7.47
2019-03-01T20:51:15.300Z,7.77
2019-03-01T20:56:09.919Z,7.70
2019-03-01T20:58:39.646Z,6.70
2019-03-01T21:01:05.367Z,5.83
2019-03-01T21:03:32.060Z,8.17
2019-03-01T21:06:01.754Z,8.30
2019-03-01T21:08:29.123Z,9.33
2019-03-01T21:10:55.495Z,8.00
2019-03-01T21:13:22.061Z,12.17
2019-03-01T21:15:48.656Z,7.13
2019-03-01T21:18:15.374Z,9.83
2019-03-01T21:20:42.026Z,7.03
2019-03-01T21:23:11.736Z,11.43
2019-03-01T21:25:39.698Z,9.27
2019-03-01T21:28:08.162Z,12.70
2019-03-01T21:30:41.066Z,12.30
2019-03-01T21:33:08.206Z,8.83
2019-03-01T21:35:34.783Z,9.13
2019-03-01T21:38:01.364Z,10.57
2019-03-01T21:40:27.957Z,8.73
2019-03-01T21:42:57.313Z,9.93
2019-03-01T21:45:23.248Z,9.63
2019-03-01T21:47:49.983Z,9.47
2019-03-01T21:50:16.591Z,11.20
2019-03-01T21:52:43.147Z,10.27
2019-03-01T21:55:09.809Z,10.57
2019-03-01T21:57:37.002Z,9.97
2019-03-01T22:00:04.155Z,10.67
2019-03-01T22:02:31.164Z,12.43
2019-03-01T22:04:59.679Z,13.83
2019-03-01T22:07:26.182Z,11.50
2019-03-01T22:09:53.184Z,9.70
2019-03-01T22:12:20.923Z,11.03
2019-03-01T22:14:49.046Z,10.30
2019-03-01T22:17:15.862Z,12.67
2019-03-01T22:19:43.013Z,10.43
2019-03-01T22:22:09.645Z,10.90
2019-03-01T22:24:36.256Z,10.20
2019-03-01T22:27:02.973Z,11.80
2019-03-01T22:29:29.719Z,12.80
2019-03-01T22:31:56.305Z,12.67
2019-03-01T22:34:23.330Z,9.90
2019-03-01T22:36:52.847Z,11.13
2019-03-01T22:39:18.908Z,14.43
2019-03-01T22:41:45.573Z,14.60
2019-03-01T22:44:12.188Z,14.77
2019-03-01T22:46:40.181Z,13.77
2019-03-01T22:49:06.905Z,10.07
2019-03-01T22:51:35.311Z,13.23
2019-03-01T22:54:01.879Z,12.10
2019-03-01T22:56:28.846Z,11.03
2019-03-01T22:58:55.464Z,12.13
2019-03-01T23:01:25.228Z,15.00
2019-03-01T23:03:54.873Z,12.23
2019-03-01T23:06:20.621Z,15.57
2019-03-01T23:08:47.276Z,16.80
2019-03-01T23:11:15.238Z,15.07
2019-03-01T23:13:42.181Z,14.53
2019-03-01T23:16:10.038Z,12.60
2019-03-01T23:18:40.506Z,13.30
2019-03-01T23:21:06.202Z,14.10
2019-03-01T23:23:32.824Z,15.67
2019-03-01T23:25:59.457Z,15.27
2019-03-01T23:28:26.104Z,14.43
2019-03-01T23:30:52.610Z,14.00
2019-03-01T23:33:19.194Z,12.87
2019-03-01T23:35:45.927Z,12.67
2019-03-01T23:38:14.907Z,19.00
2019-03-01T23:40:41.464Z,11.73
2019-03-01T23:43:08.136Z,17.60
2019-03-01T23:45:34.881Z,15.60
2019-03-01T23:48:01.570Z,16.77
2019-03-01T23:50:31.602Z,14.67
2019-03-01T23:52:58.703Z,17.00
2019-03-01T23:55:25.601Z,17.23
2019-03-01T23:57:52.763Z,17.40
